Time;durP1;ratioP1;P1;durP2;ratioP2;P2;SDS_P1;SDS_P2;PMS_P1;PMS_P2;Temp;Humidity;BMP_temperature;BMP_pressure;BME280_temperature;BME280_humidity;BME280_pressure;Samples;Min_cycle;Max_cycle;Signal;HPM_P1;HPM_P2
2021/12/19 00:10:51;;;;;;;8.73;6.45;;;;;;;;;;5058098;28;20213;-78
2021/12/19 00:13:18;;;;;;;8.63;7.13;;;;;;;;;;5058703;28;20207;-79
2021/12/19 00:15:45;;;;;;;7.75;6.55;;;;;;;;;;5054632;28;20206;-78
2021/12/19 00:18:12;;;;;;;6.97;6.13;;;;;;;;;;5052294;28;20196;-78
2021/12/19 00:20:40;;;;;;;7.78;5.93;;;;;;;;;;5050951;28;20198;-79
2021/12/19 00:23:07;;;;;;;8.30;6.50;;;;;;;;;;5049981;28;20191;-78
2021/12/19 00:25:34;;;;;;;7.35;6.20;;;;;;;;;;5062620;28;20203;-78
2021/12/19 00:28:01;;;;;;;8.02;6.75;;;;;;;;;;5064683;28;20505;-78
2021/12/19 00:30:28;;;;;;;10.45;7.25;;;;;;;;;;5047411;28;20573;-79
2021/12/19 00:32:55;;;;;;;9.13;6.00;;;;;;;;;;5047089;28;20562;-78
2021/12/19 00:35:23;;;;;;;7.85;6.60;;;;;;;;;;5053655;28;20562;-77
2021/12/19 00:37:51;;;;;;;7.40;6.25;;;;;;;;;;5051418;28;20226;-78
2021/12/19 00:40:19;;;;;;;7.97;6.15;;;;;;;;;;5056040;28;20218;-77
2021/12/19 00:42:51;;;;;;;8.63;7.10;;;;;;;;;;5055829;28;20211;-77
2021/12/19 00:45:26;;;;;;;7.10;4.97;;;;;;;;;;5057593;28;20628;-77
2021/12/19 00:47:53;;;;;;;5.82;5.22;;;;;;;;;;5050787;28;20195;-77
2021/12/19 00:50:20;;;;;;;12.07;6.07;;;;;;;;;;5052946;28;20562;-77
2021/12/19 00:52:47;;;;;;;9.02;6.65;;;;;;;;;;5060293;28;20205;-77
2021/12/19 00:55:16;;;;;;;9.13;6.65;;;;;;;;;;5063693;28;20190;-77
2021/12/19 00:57:43;;;;;;;8.30;6.68;;;;;;;;;;5052635;28;20222;-77
2021/12/19 01:00:14;;;;;;;7.43;6.28;;;;;;;;;;5052531;28;20586;-78
2021/12/19 01:02:41;;;;;;;6.63;5.75;;;;;;;;;;5058199;28;20194;-77
2021/12/19 01:05:09;;;;;;;8.95;5.80;;;;;;;;;;5059660;28;20205;-77
2021/12/19 01:07:36;;;;;;;6.72;6.03;;;;;;;;;;5054613;28;20210;-77
2021/12/19 01:10:04;;;;;;;11.20;6.95;;;;;;;;;;5054857;28;20209;-77
2021/12/19 01:12:33;;;;;;;6.97;5.55;;;;;;;;;;5051924;28;20191;-77
2021/12/19 01:15:00;;;;;;;7.10;5.53;;;;;;;;;;5057994;28;20206;-76
2021/12/19 01:17:27;;;;;;;5.82;5.18;;;;;;;;;;5057828;28;20199;-77
2021/12/19 01:19:54;;;;;;;6.30;5.53;;;;;;;;;;5057320;28;20213;-76
2021/12/19 01:22:21;;;;;;;6.75;5.03;;;;;;;;;;5056875;28;20191;-77
2021/12/19 01:24:49;;;;;;;7.20;5.88;;;;;;;;;;5059171;28;20203;-76
2021/12/19 01:27:16;;;;;;;10.45;5.88;;;;;;;;;;5068626;28;20202;-76
2021/12/19 01:29:44;;;;;;;5.43;4.20;;;;;;;;;;5069108;28;20202;-77
2021/12/19 01:32:11;;;;;;;5.50;4.70;;;;;;;;;;5043554;28;20202;-78
2021/12/19 01:34:38;;;;;;;4.75;4.35;;;;;;;;;;5049325;28;20198;-78
2021/12/19 01:37:05;;;;;;;7.82;4.50;;;;;;;;;;5051634;28;20537;-78
2021/12/19 01:39:33;;;;;;;4.50;4.10;;;;;;;;;;5047528;28;20751;-78
2021/12/19 01:42:00;;;;;;;5.72;5.03;;;;;;;;;;5052552;28;20203;-78
2021/12/19 01:44:27;;;;;;;5.50;4.95;;;;;;;;;;5059202;28;20193;-77
2021/12/19 01:46:56;;;;;;;6.30;4.90;;;;;;;;;;5057432;28;20199;-76
2021/12/19 01:49:23;;;;;;;5.22;4.70;;;;;;;;;;5034367;28;20204;-76
2021/12/19 01:51:51;;;;;;;4.72;3.97;;;;;;;;;;5039609;28;20289;-76
2021/12/19 01:54:18;;;;;;;5.15;4.60;;;;;;;;;;5052321;28;20294;-77
2021/12/19 01:56:45;;;;;;;4.15;3.40;;;;;;;;;;5059444;28;20635;-75
2021/12/19 01:59:12;;;;;;;4.88;4.38;;;;;;;;;;5050606;28;20230;-76
2021/12/19 02:01:43;;;;;;;4.32;3.50;;;;;;;;;;5062219;28;20194;-76
2021/12/19 02:04:12;;;;;;;4.70;3.67;;;;;;;;;;5042678;28;20674;-76
2021/12/19 02:06:39;;;;;;;4.35;3.42;;;;;;;;;;5050427;28;20202;-76
2021/12/19 02:09:07;;;;;;;3.72;3.05;;;;;;;;;;5048074;28;20202;-75
2021/12/19 02:11:35;;;;;;;5.00;3.45;;;;;;;;;;5062004;28;20211;-75
2021/12/19 02:14:02;;;;;;;5.25;4.13;;;;;;;;;;5058474;28;20202;-75
2021/12/19 02:16:29;;;;;;;6.40;3.85;;;;;;;;;;5050794;28;20199;-75
2021/12/19 02:18:56;;;;;;;3.78;3.47;;;;;;;;;;5055060;28;20633;-75
2021/12/19 02:21:25;;;;;;;3.50;3.20;;;;;;;;;;5052753;28;20580;-75
2021/12/19 02:23:52;;;;;;;4.20;3.53;;;;;;;;;;5043092;28;20206;-75
2021/12/19 02:26:19;;;;;;;4.05;3.63;;;;;;;;;;5053688;28;20198;-76
2021/12/19 02:28:46;;;;;;;4.00;3.35;;;;;;;;;;5048633;28;20207;-75
2021/12/19 02:31:13;;;;;;;5.75;3.88;;;;;;;;;;5049410;28;20666;-75
2021/12/19 02:33:44;;;;;;;4.85;3.47;;;;;;;;;;5047181;28;20190;-77
2021/12/19 02:36:25;;;;;;;3.72;3.33;;;;;;;;;;5047895;28;20225;-77
2021/12/19 02:39:35;;;;;;;4.20;3.80;;;;;;;;;;5045915;28;20202;-77
2021/12/19 02:50:18;;;;;;;3.28;2.85;;;;;;;;;;5058789;28;20642;-76
2021/12/19 02:52:45;;;;;;;4.10;3.33;;;;;;;;;;5030898;28;20658;-75
2021/12/19 02:55:15;;;;;;;6.20;3.70;;;;;;;;;;5045069;28;20222;-76
2021/12/19 02:57:42;;;;;;;3.40;2.90;;;;;;;;;;5056726;28;20199;-77
2021/12/19 03:00:11;;;;;;;4.38;3.40;;;;;;;;;;5050275;28;20226;-76
2021/12/19 03:02:38;;;;;;;5.10;4.07;;;;;;;;;;5055830;28;20210;-76
2021/12/19 03:05:05;;;;;;;5.55;3.22;;;;;;;;;;5046325;28;20210;-77
2021/12/19 03:07:37;;;;;;;3.35;2.97;;;;;;;;;;5049182;28;20195;-75
2021/12/19 03:10:23;;;;;;;3.38;3.08;;;;;;;;;;5037213;28;20615;-75
2021/12/19 03:13:02;;;;;;;3.78;3.47;;;;;;;;;;5045730;28;20210;-77
2021/12/19 03:18:16;;;;;;;4.05;3.25;;;;;;;;;;5055682;28;20205;-76
2021/12/19 03:20:44;;;;;;;2.85;2.63;;;;;;;;;;5055085;28;20226;-75
2021/12/19 03:23:14;;;;;;;2.83;2.38;;;;;;;;;;5051715;28;20209;-79
2021/12/19 03:25:41;;;;;;;3.67;3.38;;;;;;;;;;5051453;28;20285;-76
2021/12/19 03:28:10;;;;;;;3.13;2.45;;;;;;;;;;5048036;28;20713;-76
2021/12/19 03:30:38;;;;;;;2.90;2.58;;;;;;;;;;5048389;28;20199;-76
2021/12/19 03:33:05;;;;;;;3.13;2.83;;;;;;;;;;5057396;28;20569;-78
2021/12/19 03:35:32;;;;;;;5.28;2.47;;;;;;;;;;5054931;28;20705;-77
2021/12/19 03:38:00;;;;;;;2.63;2.42;;;;;;;;;;5050246;28;20202;-77
2021/12/19 03:40:36;;;;;;;2.00;1.80;;;;;;;;;;5054019;28;20210;-77
2021/12/19 03:43:05;;;;;;;3.83;2.05;;;;;;;;;;5049683;28;20242;-78
2021/12/19 03:45:34;;;;;;;2.47;2.15;;;;;;;;;;5063738;28;20191;-76
2021/12/19 03:48:03;;;;;;;2.25;2.05;;;;;;;;;;5048691;28;20207;-76
2021/12/19 03:50:32;;;;;;;2.22;2.03;;;;;;;;;;5061756;28;20241;-77
2021/12/19 03:52:59;;;;;;;2.45;2.20;;;;;;;;;;5057173;28;20203;-77
2021/12/19 03:55:27;;;;;;;2.45;1.75;;;;;;;;;;5055405;28;20213;-78
2021/12/19 03:57:55;;;;;;;2.30;2.10;;;;;;;;;;5064864;28;20206;-76
2021/12/19 04:00:25;;;;;;;2.70;1.85;;;;;;;;;;5043650;28;20222;-76
2021/12/19 04:02:55;;;;;;;2.25;2.05;;;;;;;;;;5053071;28;20203;-77
2021/12/19 04:05:22;;;;;;;2.38;2.17;;;;;;;;;;5060964;28;20205;-77
2021/12/19 04:07:49;;;;;;;2.10;1.83;;;;;;;;;;5056960;28;20203;-77
2021/12/19 04:10:16;;;;;;;2.13;1.83;;;;;;;;;;5059277;28;20206;-77
2021/12/19 04:12:44;;;;;;;2.50;1.75;;;;;;;;;;5046956;28;20210;-77
2021/12/19 04:15:11;;;;;;;2.25;2.03;;;;;;;;;;5053407;28;20657;-77
2021/12/19 04:17:38;;;;;;;1.50;1.40;;;;;;;;;;5048018;28;20207;-77
2021/12/19 04:20:08;;;;;;;2.15;1.95;;;;;;;;;;5048553;28;20250;-77
2021/12/19 04:22:35;;;;;;;2.38;1.90;;;;;;;;;;5055492;28;20206;-77
2021/12/19 04:25:02;;;;;;;2.05;1.75;;;;;;;;;;5047440;28;20194;-77
2021/12/19 04:27:30;;;;;;;2.58;2.03;;;;;;;;;;5056973;28;20202;-76
2021/12/19 04:29:57;;;;;;;1.50;1.40;;;;;;;;;;5050911;28;20191;-77
2021/12/19 04:32:30;;;;;;;2.58;2.03;;;;;;;;;;5051276;28;20203;-77
2021/12/19 04:34:57;;;;;;;1.65;1.55;;;;;;;;;;5048109;28;20194;-78
2021/12/19 04:37:49;;;;;;;1.60;1.30;;;;;;;;;;5056414;28;20203;-77
2021/12/19 04:40:17;;;;;;;1.67;1.55;;;;;;;;;;5054213;28;20221;-77
2021/12/19 04:51:51;;;;;;;1.40;1.30;;;;;;;;;;5031757;28;20198;-77
2021/12/19 04:54:31;;;;;;;2.55;2.33;;;;;;;;;;5063039;28;20649;-78
2021/12/19 04:57:09;;;;;;;1.27;1.10;;;;;;;;;;5057940;28;20542;-77
2021/12/19 04:59:51;;;;;;;1.80;1.30;;;;;;;;;;5053463;28;20222;-76
2021/12/19 05:02:30;;;;;;;1.88;1.50;;;;;;;;;;5040004;28;20195;-77
2021/12/19 05:05:27;;;;;;;1.77;1.42;;;;;;;;;;5051242;28;20206;-77
2021/12/19 05:16:12;;;;;;;2.15;1.52;;;;;;;;;;5059869;28;20194;-76
2021/12/19 05:18:41;;;;;;;1.88;1.65;;;;;;;;;;5057672;28;20246;-77
2021/12/19 05:21:15;;;;;;;1.40;1.30;;;;;;;;;;5044043;28;20302;-77
2021/12/19 05:24:04;;;;;;;4.15;1.25;;;;;;;;;;5050437;28;20202;-77
2021/12/19 05:26:32;;;;;;;1.58;1.35;;;;;;;;;;5053302;28;20211;-76
2021/12/19 05:29:00;;;;;;;3.17;1.25;;;;;;;;;;5055642;28;20655;-77
2021/12/19 05:31:27;;;;;;;1.92;1.40;;;;;;;;;;5048348;28;20590;-78
2021/12/19 05:33:54;;;;;;;1.70;1.27;;;;;;;;;;5057927;28;20229;-78
2021/12/19 05:47:23;;;;;;;1.70;1.35;;;;;;;;;;5048702;28;20210;-77
2021/12/19 05:49:50;;;;;;;1.95;1.38;;;;;;;;;;5040801;28;20217;-77
2021/12/19 05:52:17;;;;;;;1.80;1.70;;;;;;;;;;5052642;28;20191;-76
2021/12/19 05:54:44;;;;;;;2.95;1.67;;;;;;;;;;5049908;28;20217;-77
2021/12/19 05:57:14;;;;;;;1.50;1.20;;;;;;;;;;5054235;28;20194;-77
2021/12/19 05:59:41;;;;;;;2.42;1.42;;;;;;;;;;5055991;28;20605;-77
2021/12/19 06:02:08;;;;;;;1.10;0.93;;;;;;;;;;5051376;28;20681;-76
2021/12/19 06:04:35;;;;;;;2.08;0.90;;;;;;;;;;5046489;28;20199;-77
2021/12/19 06:07:03;;;;;;;1.88;1.33;;;;;;;;;;5047299;28;20202;-77
2021/12/19 06:09:30;;;;;;;2.90;1.50;;;;;;;;;;5047729;28;20566;-76
2021/12/19 06:11:57;;;;;;;1.98;1.42;;;;;;;;;;5048220;28;20820;-77
2021/12/19 06:14:31;;;;;;;1.45;1.20;;;;;;;;;;5067861;28;20557;-78
2021/12/19 06:16:58;;;;;;;1.48;1.05;;;;;;;;;;5042414;28;20213;-77
2021/12/19 06:19:27;;;;;;;1.23;1.10;;;;;;;;;;5045513;28;20577;-78
2021/12/19 06:21:55;;;;;;;1.25;0.90;;;;;;;;;;5051494;28;20223;-77
2021/12/19 06:24:22;;;;;;;1.33;1.17;;;;;;;;;;5046063;28;20213;-78
2021/12/19 06:26:49;;;;;;;1.20;1.08;;;;;;;;;;5047491;28;20194;-76
2021/12/19 06:29:16;;;;;;;3.13;1.52;;;;;;;;;;5051294;28;20203;-76
2021/12/19 06:31:44;;;;;;;1.75;1.20;;;;;;;;;;5055724;28;20662;-77
2021/12/19 06:34:11;;;;;;;1.73;1.10;;;;;;;;;;5039004;28;20209;-77
2021/12/19 06:36:40;;;;;;;1.55;0.95;;;;;;;;;;5049596;28;20630;-77
2021/12/19 06:39:07;;;;;;;1.17;1.08;;;;;;;;;;5052148;28;20738;-77
2021/12/19 06:41:36;;;;;;;1.50;1.10;;;;;;;;;;5055052;28;20218;-77
2021/12/19 06:44:03;;;;;;;1.60;1.10;;;;;;;;;;5057220;28;20202;-77
2021/12/19 06:46:30;;;;;;;1.88;1.45;;;;;;;;;;5052998;28;20195;-77
2021/12/19 06:48:59;;;;;;;1.25;0.95;;;;;;;;;;5031346;28;20202;-77
2021/12/19 06:51:26;;;;;;;1.90;1.20;;;;;;;;;;5031541;28;20195;-77
2021/12/19 06:53:53;;;;;;;3.92;1.20;;;;;;;;;;5047400;28;20235;-77
2021/12/19 06:56:21;;;;;;;1.20;0.93;;;;;;;;;;5050795;28;20202;-78
2021/12/19 06:58:48;;;;;;;1.40;1.00;;;;;;;;;;5051198;28;20784;-77
2021/12/19 07:01:15;;;;;;;1.10;1.00;;;;;;;;;;5048204;28;20228;-77
2021/12/19 07:03:42;;;;;;;1.67;0.90;;;;;;;;;;5049374;28;20857;-77
2021/12/19 07:06:10;;;;;;;1.20;0.90;;;;;;;;;;5055247;28;20194;-76
2021/12/19 07:08:37;;;;;;;1.20;0.82;;;;;;;;;;5039096;28;20202;-77
2021/12/19 07:11:05;;;;;;;1.55;1.42;;;;;;;;;;5053040;28;20218;-77
2021/12/19 07:13:32;;;;;;;1.40;1.05;;;;;;;;;;5059631;28;20195;-77
2021/12/19 07:15:59;;;;;;;1.50;1.15;;;;;;;;;;5049968;28;20564;-77
2021/12/19 07:18:26;;;;;;;1.60;1.25;;;;;;;;;;5049627;28;20558;-76
2021/12/19 07:20:53;;;;;;;1.10;1.00;;;;;;;;;;5059037;28;20227;-77
2021/12/19 07:23:22;;;;;;;1.20;1.05;;;;;;;;;;5049252;28;20195;-76
2021/12/19 07:25:49;;;;;;;1.30;1.10;;;;;;;;;;5049821;28;20685;-77
2021/12/19 07:28:16;;;;;;;1.50;0.90;;;;;;;;;;5067525;28;20377;-77
2021/12/19 07:30:44;;;;;;;1.20;0.80;;;;;;;;;;5043980;28;20551;-79
2021/12/19 07:33:11;;;;;;;1.52;1.20;;;;;;;;;;5052349;28;20654;-79
2021/12/19 07:35:42;;;;;;;1.33;0.90;;;;;;;;;;5057940;28;20601;-80
2021/12/19 07:38:11;;;;;;;1.30;0.98;;;;;;;;;;5064731;28;20198;-81
2021/12/19 07:40:46;;;;;;;1.35;1.05;;;;;;;;;;5052129;28;20230;-78
2021/12/19 07:43:13;;;;;;;1.05;0.95;;;;;;;;;;5051190;28;20230;-78
2021/12/19 07:45:41;;;;;;;2.08;1.27;;;;;;;;;;5067779;28;20562;-79
2021/12/19 07:48:08;;;;;;;1.45;1.10;;;;;;;;;;5047961;28;20195;-79
2021/12/19 07:50:35;;;;;;;1.48;1.17;;;;;;;;;;5050169;28;20201;-80
2021/12/19 07:53:03;;;;;;;1.65;1.00;;;;;;;;;;5049350;28;20278;-80
2021/12/19 07:55:32;;;;;;;1.50;0.90;;;;;;;;;;5058759;28;20597;-80
2021/12/19 07:58:01;;;;;;;1.45;1.17;;;;;;;;;;5067995;28;20198;-78
2021/12/19 08:00:28;;;;;;;1.80;1.30;;;;;;;;;;5051993;28;20226;-78
2021/12/19 08:02:55;;;;;;;1.50;1.10;;;;;;;;;;5052983;28;20203;-77
2021/12/19 08:05:22;;;;;;;1.40;1.00;;;;;;;;;;5052228;28;20195;-78
2021/12/19 08:07:55;;;;;;;1.58;0.98;;;;;;;;;;5047865;28;20195;-77
2021/12/19 08:13:09;;;;;;;1.90;0.80;;;;;;;;;;5061691;28;20677;-77
2021/12/19 08:15:36;;;;;;;1.33;1.02;;;;;;;;;;5050379;28;20194;-78
2021/12/19 08:18:04;;;;;;;2.42;1.50;;;;;;;;;;5048709;28;20187;-82
2021/12/19 08:20:31;;;;;;;1.55;1.10;;;;;;;;;;5047587;28;20210;-78
2021/12/19 08:22:58;;;;;;;1.45;1.35;;;;;;;;;;5050892;28;20233;-78
2021/12/19 08:25:26;;;;;;;0.90;0.80;;;;;;;;;;5045851;28;20195;-78
2021/12/19 08:27:54;;;;;;;1.00;0.90;;;;;;;;;;5043150;28;20233;-78
2021/12/19 08:30:24;;;;;;;1.05;0.85;;;;;;;;;;5058871;28;20214;-79
2021/12/19 08:32:52;;;;;;;1.27;1.10;;;;;;;;;;5049794;28;20201;-84
2021/12/19 08:35:20;;;;;;;1.73;1.27;;;;;;;;;;5061014;28;20715;-78
2021/12/19 08:37:49;;;;;;;1.67;1.40;;;;;;;;;;5060180;28;20199;-78
2021/12/19 08:40:16;;;;;;;2.45;1.20;;;;;;;;;;5049049;28;20689;-78
2021/12/19 08:42:43;;;;;;;1.40;1.15;;;;;;;;;;5051756;28;20226;-78
2021/12/19 08:45:11;;;;;;;1.45;1.02;;;;;;;;;;5055755;28;20205;-78
2021/12/19 08:47:39;;;;;;;1.45;1.25;;;;;;;;;;5051176;28;20199;-78
2021/12/19 08:50:08;;;;;;;1.42;1.00;;;;;;;;;;5051465;28;20605;-78
2021/12/19 08:52:35;;;;;;;1.45;0.80;;;;;;;;;;5051223;28;20658;-78
2021/12/19 08:55:02;;;;;;;1.55;1.10;;;;;;;;;;5045165;28;20646;-79
2021/12/19 08:57:29;;;;;;;1.30;1.15;;;;;;;;;;5057505;28;20195;-78
2021/12/19 08:59:57;;;;;;;2.25;1.17;;;;;;;;;;5056511;28;20594;-79
2021/12/19 09:02:24;;;;;;;2.10;1.38;;;;;;;;;;5050000;28;20768;-82
2021/12/19 09:04:53;;;;;;;2.08;1.40;;;;;;;;;;5051115;28;20225;-80
2021/12/19 09:07:20;;;;;;;1.45;1.02;;;;;;;;;;5052846;28;20203;-82
2021/12/19 09:09:48;;;;;;;1.80;1.30;;;;;;;;;;5052164;28;20202;-83
2021/12/19 09:12:15;;;;;;;4.40;1.08;;;;;;;;;;5052731;28;20558;-78
2021/12/19 09:14:42;;;;;;;1.60;1.08;;;;;;;;;;5038684;28;20206;-78
2021/12/19 09:17:09;;;;;;;2.10;1.25;;;;;;;;;;5054824;28;20221;-78
2021/12/19 09:19:36;;;;;;;1.10;1.00;;;;;;;;;;5052773;28;20665;-78
2021/12/19 09:22:05;;;;;;;1.42;1.30;;;;;;;;;;5061231;28;20207;-78
2021/12/19 09:24:32;;;;;;;2.10;1.17;;;;;;;;;;5049312;28;20190;-78
2021/12/19 09:27:00;;;;;;;1.25;1.10;;;;;;;;;;5052599;28;20198;-78
2021/12/19 09:29:28;;;;;;;2.00;1.42;;;;;;;;;;5053873;28;20205;-78
2021/12/19 09:31:56;;;;;;;1.70;1.10;;;;;;;;;;5072834;28;20198;-78
2021/12/19 09:34:23;;;;;;;1.63;1.13;;;;;;;;;;5048038;28;20222;-78
2021/12/19 09:36:50;;;;;;;2.15;1.42;;;;;;;;;;5052273;28;20209;-78
2021/12/19 09:39:19;;;;;;;1.25;1.00;;;;;;;;;;5045461;28;20222;-78
2021/12/19 09:41:47;;;;;;;1.70;1.40;;;;;;;;;;5044721;28;20210;-78
2021/12/19 09:44:16;;;;;;;1.13;1.00;;;;;;;;;;5051864;28;20199;-78
2021/12/19 09:46:44;;;;;;;1.40;1.30;;;;;;;;;;5050226;28;20666;-78
2021/12/19 09:49:12;;;;;;;1.73;1.13;;;;;;;;;;5051612;28;20207;-78
2021/12/19 09:51:39;;;;;;;1.40;1.27;;;;;;;;;;5066678;28;20656;-78
2021/12/19 09:54:07;;;;;;;2.22;1.15;;;;;;;;;;5049338;28;20233;-78
2021/12/19 09:56:35;;;;;;;1.10;0.85;;;;;;;;;;5048857;28;20198;-78
2021/12/19 09:59:03;;;;;;;1.30;1.00;;;;;;;;;;5050274;28;20669;-78
2021/12/19 10:01:31;;;;;;;1.65;0.98;;;;;;;;;;5054032;28;20228;-78
2021/12/19 10:03:58;;;;;;;1.80;1.20;;;;;;;;;;5041156;28;20203;-78
2021/12/19 10:06:26;;;;;;;1.40;1.20;;;;;;;;;;5054831;28;20194;-79
2021/12/19 10:09:08;;;;;;;1.20;0.90;;;;;;;;;;5042307;28;20554;-78
2021/12/19 10:11:47;;;;;;;1.10;0.90;;;;;;;;;;5058949;28;20220;-77
2021/12/19 10:14:28;;;;;;;1.20;1.02;;;;;;;;;;5048424;28;20699;-78
2021/12/19 10:16:55;;;;;;;1.38;1.10;;;;;;;;;;5052890;28;20226;-78
2021/12/19 10:19:22;;;;;;;1.33;1.02;;;;;;;;;;5048388;28;20226;-78
2021/12/19 10:21:49;;;;;;;1.20;1.00;;;;;;;;;;5051619;28;20211;-78
2021/12/19 10:24:32;;;;;;;2.00;1.00;;;;;;;;;;5046908;28;20682;-77
2021/12/19 10:27:02;;;;;;;1.33;1.10;;;;;;;;;;5047726;28;20638;-78
2021/12/19 10:29:45;;;;;;;1.10;0.90;;;;;;;;;;5061066;28;20588;-78
2021/12/19 10:32:12;;;;;;;1.60;1.40;;;;;;;;;;5052539;28;20195;-78
2021/12/19 10:34:39;;;;;;;1.00;0.77;;;;;;;;;;5050508;28;20200;-78
2021/12/19 10:37:06;;;;;;;1.13;0.98;;;;;;;;;;5048797;28;20573;-78
2021/12/19 10:39:38;;;;;;;1.35;1.10;;;;;;;;;;5054149;28;20195;-77
2021/12/19 10:42:08;;;;;;;1.05;0.88;;;;;;;;;;5050500;28;20218;-78
2021/12/19 10:47:22;;;;;;;1.15;0.80;;;;;;;;;;5058347;28;20343;-83
2021/12/19 10:49:50;;;;;;;1.17;0.90;;;;;;;;;;5054566;28;20213;-81
2021/12/19 10:52:31;;;;;;;1.08;0.80;;;;;;;;;;5059828;28;20195;-78
2021/12/19 10:54:59;;;;;;;1.02;0.90;;;;;;;;;;5038041;28;20198;-78
2021/12/19 10:57:33;;;;;;;1.80;1.00;;;;;;;;;;5052909;28;20611;-77
2021/12/19 11:00:00;;;;;;;0.90;0.70;;;;;;;;;;5045062;28;20593;-77
2021/12/19 11:02:38;;;;;;;1.35;1.00;;;;;;;;;;5060786;28;20229;-77
2021/12/19 11:05:05;;;;;;;1.33;0.95;;;;;;;;;;5050781;28;20567;-77
2021/12/19 11:07:33;;;;;;;1.00;0.85;;;;;;;;;;5046347;28;20214;-77
2021/12/19 11:10:00;;;;;;;1.50;0.95;;;;;;;;;;5046399;28;20214;-78
2021/12/19 11:12:28;;;;;;;1.05;0.90;;;;;;;;;;5049517;28;20677;-78
2021/12/19 11:14:56;;;;;;;1.10;0.90;;;;;;;;;;5048993;28;20593;-77
2021/12/19 11:17:26;;;;;;;1.00;0.82;;;;;;;;;;5051515;28;20199;-77
2021/12/19 11:19:54;;;;;;;1.20;0.80;;;;;;;;;;5049301;28;20194;-78
2021/12/19 11:22:24;;;;;;;1.10;0.93;;;;;;;;;;5050815;28;20220;-77
2021/12/19 11:24:51;;;;;;;1.75;1.00;;;;;;;;;;5047629;28;20234;-77
2021/12/19 11:27:19;;;;;;;1.67;1.00;;;;;;;;;;5046924;28;20230;-78
2021/12/19 11:29:46;;;;;;;1.30;1.00;;;;;;;;;;5052379;28;20669;-78
2021/12/19 11:32:19;;;;;;;1.58;1.05;;;;;;;;;;5045452;28;20205;-78
2021/12/19 11:35:01;;;;;;;1.27;1.17;;;;;;;;;;5044909;28;20692;-77
2021/12/19 11:37:29;;;;;;;1.80;1.10;;;;;;;;;;5043823;28;20628;-77
2021/12/19 11:39:57;;;;;;;1.10;0.90;;;;;;;;;;5035024;28;20250;-77
2021/12/19 11:42:31;;;;;;;1.98;0.80;;;;;;;;;;5045875;28;20215;-76
2021/12/19 11:45:13;;;;;;;1.30;1.15;;;;;;;;;;5046152;28;20569;-77
2021/12/19 11:47:44;;;;;;;1.50;1.15;;;;;;;;;;5042192;28;20575;-77
2021/12/19 11:50:15;;;;;;;1.45;1.25;;;;;;;;;;5050970;28;20214;-77
2021/12/19 11:52:42;;;;;;;2.95;1.00;;;;;;;;;;5058916;28;20191;-78
2021/12/19 11:55:29;;;;;;;1.00;0.90;;;;;;;;;;5049013;28;20717;-77
2021/12/19 11:58:17;;;;;;;2.25;1.00;;;;;;;;;;5058665;28;20212;-78
2021/12/19 12:00:47;;;;;;;1.40;1.25;;;;;;;;;;5053580;28;20268;-77
2021/12/19 12:03:29;;;;;;;1.83;1.27;;;;;;;;;;5063819;28;20698;-78
2021/12/19 12:06:12;;;;;;;1.60;1.17;;;;;;;;;;5052898;28;20358;-78
2021/12/19 12:08:39;;;;;;;1.70;1.20;;;;;;;;;;5043602;28;20578;-79
2021/12/19 12:11:12;;;;;;;1.17;1.08;;;;;;;;;;5049280;28;20199;-78
2021/12/19 12:13:40;;;;;;;1.88;1.17;;;;;;;;;;5052156;28;20558;-76
2021/12/19 12:16:41;;;;;;;1.95;1.20;;;;;;;;;;5062347;28;20202;-76
2021/12/19 12:19:10;;;;;;;2.45;1.35;;;;;;;;;;5005090;28;20202;-76
2021/12/19 12:21:46;;;;;;;1.92;1.30;;;;;;;;;;5053315;28;20251;-76
2021/12/19 12:24:17;;;;;;;1.77;1.15;;;;;;;;;;5053100;28;20746;-76
2021/12/19 12:26:56;;;;;;;1.70;1.25;;;;;;;;;;5037855;28;20671;-76
2021/12/19 12:29:23;;;;;;;0.90;0.80;;;;;;;;;;5049577;28;20201;-76
2021/12/19 12:31:51;;;;;;;1.33;0.80;;;;;;;;;;5052739;28;20203;-77
2021/12/19 12:34:21;;;;;;;1.10;0.95;;;;;;;;;;5047520;28;20195;-76
2021/12/19 12:36:48;;;;;;;1.35;1.25;;;;;;;;;;5047105;28;20214;-77
2021/12/19 12:39:19;;;;;;;2.22;1.42;;;;;;;;;;5051572;28;20203;-77
2021/12/19 12:41:57;;;;;;;1.85;1.70;;;;;;;;;;5050396;28;20276;-77
2021/12/19 12:44:24;;;;;;;1.92;1.83;;;;;;;;;;5066660;28;20613;-77
2021/12/19 12:46:52;;;;;;;2.20;1.90;;;;;;;;;;5050597;28;20206;-78
2021/12/19 12:49:21;;;;;;;1.77;1.20;;;;;;;;;;5041669;28;20619;-77
2021/12/19 12:51:50;;;;;;;2.28;1.17;;;;;;;;;;5054083;28;20650;-77
2021/12/19 12:54:20;;;;;;;2.30;1.60;;;;;;;;;;5055865;28;20214;-77
2021/12/19 12:56:49;;;;;;;1.42;1.30;;;;;;;;;;5046275;28;20674;-77
2021/12/19 12:59:17;;;;;;;1.95;1.58;;;;;;;;;;5050928;28;20227;-77
2021/12/19 13:01:47;;;;;;;2.13;1.50;;;;;;;;;;5050412;28;20209;-76
2021/12/19 13:04:19;;;;;;;2.47;1.48;;;;;;;;;;5050580;28;20214;-76
2021/12/19 13:06:52;;;;;;;2.70;1.77;;;;;;;;;;5042243;28;20210;-76
2021/12/19 13:09:21;;;;;;;2.30;1.90;;;;;;;;;;5051003;28;20261;-77
2021/12/19 13:11:49;;;;;;;1.55;1.25;;;;;;;;;;5056138;28;20569;-76
2021/12/19 13:14:21;;;;;;;1.30;1.20;;;;;;;;;;5049836;28;20221;-76
2021/12/19 13:16:49;;;;;;;1.40;1.10;;;;;;;;;;5048082;28;20242;-76
2021/12/19 13:19:35;;;;;;;1.55;1.42;;;;;;;;;;5049354;28;20685;-77
2021/12/19 13:22:04;;;;;;;1.65;1.40;;;;;;;;;;5047548;28;20206;-77
2021/12/19 13:24:34;;;;;;;1.60;1.17;;;;;;;;;;5048661;28;20218;-76
2021/12/19 13:27:05;;;;;;;1.83;1.40;;;;;;;;;;5059564;28;20206;-77
2021/12/19 13:29:32;;;;;;;1.83;1.50;;;;;;;;;;5060547;28;20569;-77
2021/12/19 13:32:19;;;;;;;1.73;1.30;;;;;;;;;;5053139;28;20199;-77
2021/12/19 13:34:47;;;;;;;1.63;1.25;;;;;;;;;;5052066;28;20205;-76
2021/12/19 13:37:15;;;;;;;3.78;1.50;;;;;;;;;;5052295;28;20643;-77
2021/12/19 13:39:45;;;;;;;2.08;1.52;;;;;;;;;;5045717;28;20663;-77
2021/12/19 13:42:13;;;;;;;2.00;1.35;;;;;;;;;;5057204;28;20203;-77
2021/12/19 13:44:40;;;;;;;1.58;1.10;;;;;;;;;;5053288;28;20720;-77
2021/12/19 13:47:11;;;;;;;4.32;1.70;;;;;;;;;;5046036;28;20203;-77
2021/12/19 13:49:39;;;;;;;3.33;1.90;;;;;;;;;;5056130;28;20566;-77
2021/12/19 13:52:08;;;;;;;3.38;1.45;;;;;;;;;;5047077;28;20209;-77
2021/12/19 13:54:40;;;;;;;1.63;1.15;;;;;;;;;;5048035;28;20202;-76
2021/12/19 13:57:17;;;;;;;1.70;1.60;;;;;;;;;;5061275;28;20681;-77
2021/12/19 13:59:45;;;;;;;1.92;1.40;;;;;;;;;;5063934;28;20237;-85
2021/12/19 14:02:12;;;;;;;2.10;1.35;;;;;;;;;;5049909;28;20623;-79
2021/12/19 14:04:41;;;;;;;1.48;1.17;;;;;;;;;;5049583;28;20222;-79
2021/12/19 14:07:13;;;;;;;2.95;1.38;;;;;;;;;;5050128;28;20643;-85
2021/12/19 14:09:43;;;;;;;1.73;1.50;;;;;;;;;;5049478;28;20699;-81
2021/12/19 14:12:15;;;;;;;2.85;1.67;;;;;;;;;;5057855;28;20288;-81
2021/12/19 14:14:42;;;;;;;1.67;1.48;;;;;;;;;;5046164;28;20201;-78
2021/12/19 14:17:11;;;;;;;1.70;1.42;;;;;;;;;;5051402;28;20685;-77
2021/12/19 14:19:39;;;;;;;8.18;2.00;;;;;;;;;;5046277;28;20210;-79
2021/12/19 14:22:14;;;;;;;1.80;1.63;;;;;;;;;;5045961;28;20551;-75
2021/12/19 14:24:44;;;;;;;1.58;1.45;;;;;;;;;;5043467;28;20678;-78
2021/12/19 14:27:18;;;;;;;1.45;1.35;;;;;;;;;;5047548;28;20218;-80
2021/12/19 14:29:47;;;;;;;1.65;1.25;;;;;;;;;;5045166;28;20683;-80
2021/12/19 14:32:15;;;;;;;2.80;2.25;;;;;;;;;;5045248;28;20205;-79
2021/12/19 14:34:48;;;;;;;1.98;1.55;;;;;;;;;;5048403;28;20190;-79
2021/12/19 14:37:18;;;;;;;2.05;1.70;;;;;;;;;;5050896;28;20222;-79
2021/12/19 14:39:58;;;;;;;2.28;1.30;;;;;;;;;;5040323;28;20203;-79
2021/12/19 14:42:29;;;;;;;3.25;1.30;;;;;;;;;;5047188;28;20723;-79
2021/12/19 14:44:56;;;;;;;1.35;1.25;;;;;;;;;;5045969;28;20221;-79
2021/12/19 14:47:37;;;;;;;1.70;1.45;;;;;;;;;;5039712;28;20697;-79
2021/12/19 14:50:15;;;;;;;2.10;1.70;;;;;;;;;;5050030;28;20647;-79
2021/12/19 14:52:56;;;;;;;1.58;1.27;;;;;;;;;;5042073;28;20205;-79
2021/12/19 14:55:26;;;;;;;2.22;1.40;;;;;;;;;;5053616;28;20226;-79
2021/12/19 14:57:53;;;;;;;1.65;1.40;;;;;;;;;;5060909;28;20198;-79
2021/12/19 15:00:20;;;;;;;4.10;2.00;;;;;;;;;;5050016;28;20226;-79
2021/12/19 15:02:48;;;;;;;4.88;1.85;;;;;;;;;;5034543;28;20211;-79
2021/12/19 15:05:15;;;;;;;3.90;1.70;;;;;;;;;;5057290;28;20544;-79
2021/12/19 15:07:44;;;;;;;3.00;1.80;;;;;;;;;;5038960;28;20200;-79
2021/12/19 15:10:12;;;;;;;1.52;1.42;;;;;;;;;;5048555;28;20635;-79
2021/12/19 15:12:41;;;;;;;1.50;1.40;;;;;;;;;;5069281;28;20581;-79
2021/12/19 15:15:08;;;;;;;1.92;1.38;;;;;;;;;;5060536;28;20294;-79
2021/12/19 15:17:35;;;;;;;2.75;1.90;;;;;;;;;;5057958;28;20195;-79
2021/12/19 15:20:02;;;;;;;2.55;2.00;;;;;;;;;;5046311;28;20202;-79
2021/12/19 15:22:31;;;;;;;4.35;1.70;;;;;;;;;;5051627;28;20202;-80
2021/12/19 15:24:58;;;;;;;2.22;1.60;;;;;;;;;;5043681;28;20756;-81
2021/12/19 15:27:25;;;;;;;1.65;1.55;;;;;;;;;;5062448;28;20206;-81
2021/12/19 15:29:54;;;;;;;2.58;1.58;;;;;;;;;;5072108;28;20210;-80
2021/12/19 15:32:22;;;;;;;2.13;1.52;;;;;;;;;;5048739;28;20218;-81
2021/12/19 15:34:49;;;;;;;1.50;1.05;;;;;;;;;;5054207;28;20582;-80
2021/12/19 15:37:16;;;;;;;2.78;1.60;;;;;;;;;;5054660;28;20194;-81
2021/12/19 15:39:43;;;;;;;3.33;2.15;;;;;;;;;;5052739;28;20236;-80
2021/12/19 15:42:10;;;;;;;2.35;1.70;;;;;;;;;;5058865;28;20206;-80
2021/12/19 15:44:37;;;;;;;2.63;1.60;;;;;;;;;;5059886;28;20707;-80
2021/12/19 15:47:06;;;;;;;2.47;2.03;;;;;;;;;;5057646;28;20204;-78
2021/12/19 15:49:33;;;;;;;2.55;1.80;;;;;;;;;;5055679;28;20198;-78
2021/12/19 15:52:00;;;;;;;2.60;1.65;;;;;;;;;;5058884;28;20197;-80